sensor_id;sensor_type;location;lat;lon;timestamp;pressure;altitude;pressure_sealevel;temperature;humidity
43420;BME280;29017;51.514;-0.178;2022-10-17T00:00:39;100489.63;;;17.86;100.00
43420;BME280;29017;51.514;-0.178;2022-10-17T00:03:06;100489.41;;;17.88;100.00
43420;BME280;29017;51.514;-0.178;2022-10-17T00:05:33;100492.06;;;17.88;100.00
43420;BME280;29017;51.514;-0.178;2022-10-17T00:08:00;100498.84;;;17.90;100.00
43420;BME280;29017;51.514;-0.178;2022-10-17T00:10:27;100503.97;;;17.92;100.00
43420;BME280;29017;51.514;-0.178;2022-10-17T00:12:53;100509.06;;;17.93;100.00
43420;BME280;29017;51.514;-0.178;2022-10-17T00:15:20;100506.41;;;17.93;100.00
43420;BME280;29017;51.514;-0.178;2022-10-17T00:17:47;100490.41;;;17.93;100.00
43420;BME280;29017;51.514;-0.178;2022-10-17T00:20:15;100488.19;;;17.97;100.00
43420;BME280;29017;51.514;-0.178;2022-10-17T00:22:42;100474.88;;;17.97;100.00
43420;BME280;29017;51.514;-0.178;2022-10-17T00:25:09;100491.88;;;17.96;100.00
43420;BME280;29017;51.514;-0.178;2022-10-17T00:27:39;100492.06;;;17.94;100.00
43420;BME280;29017;51.514;-0.178;2022-10-17T00:30:09;100494.72;;;17.94;100.00
43420;BME280;29017;51.514;-0.178;2022-10-17T00:32:36;100497.38;;;17.94;100.00
43420;BME280;29017;51.514;-0.178;2022-10-17T00:35:04;100499.22;;;17.94;100.00
43420;BME280;29017;51.514;-0.178;2022-10-17T00:37:31;100499.03;;;17.95;100.00
43420;BME280;29017;51.514;-0.178;2022-10-17T00:39:58;100511.53;;;17.95;100.00
43420;BME280;29017;51.514;-0.178;2022-10-17T00:42:26;100525.66;;;17.95;100.00
43420;BME280;29017;51.514;-0.178;2022-10-17T00:45:16;100549.81;;;17.94;100.00
43420;BME280;29017;51.514;-0.178;2022-10-17T00:47:47;100546.56;;;17.92;100.00
43420;BME280;29017;51.514;-0.178;2022-10-17T00:50:18;100546.56;;;17.92;100.00
43420;BME280;29017;51.514;-0.178;2022-10-17T00:52:46;100553.94;;;17.90;100.00
43420;BME280;29017;51.514;-0.178;2022-10-17T00:55:18;100545.13;;;17.89;100.00
43420;BME280;29017;51.514;-0.178;2022-10-17T00:57:46;100554.75;;;17.90;100.00
43420;BME280;29017;51.514;-0.178;2022-10-17T01:00:15;100554.94;;;17.89;100.00
43420;BME280;29017;51.514;-0.178;2022-10-17T01:02:43;100554.94;;;17.89;100.00
43420;BME280;29017;51.514;-0.178;2022-10-17T01:05:11;100547.19;;;17.87;100.00
43420;BME280;29017;51.514;-0.178;2022-10-17T01:07:39;100556.19;;;17.86;100.00
43420;BME280;29017;51.514;-0.178;2022-10-17T01:10:08;100556.19;;;17.86;100.00
43420;BME280;29017;51.514;-0.178;2022-10-17T01:18:29;100587.13;;;17.81;100.00
43420;BME280;29017;51.514;-0.178;2022-10-17T01:24:19;100581.97;;;17.73;100.00
43420;BME280;29017;51.514;-0.178;2022-10-17T01:32:50;100586.09;;;17.69;100.00
43420;BME280;29017;51.514;-0.178;2022-10-17T01:35:28;100577.50;;;17.67;100.00
43420;BME280;29017;51.514;-0.178;2022-10-17T01:38:07;100580.78;;;17.62;100.00
43420;BME280;29017;51.514;-0.178;2022-10-17T01:40:51;100588.53;;;17.64;100.00
43420;BME280;29017;51.514;-0.178;2022-10-17T01:43:36;100586.91;;;17.63;100.00
43420;BME280;29017;51.514;-0.178;2022-10-17T01:48:39;100600.44;;;17.61;100.00
43420;BME280;29017;51.514;-0.178;2022-10-17T01:51:14;100606.56;;;17.62;100.00
43420;BME280;29017;51.514;-0.178;2022-10-17T01:54:12;100596.53;;;17.64;100.00
43420;BME280;29017;51.514;-0.178;2022-10-17T01:56:41;100597.34;;;17.64;100.00
43420;BME280;29017;51.514;-0.178;2022-10-17T01:59:28;100592.22;;;17.63;100.00
43420;BME280;29017;51.514;-0.178;2022-10-17T02:01:57;100613.72;;;17.61;100.00
43420;BME280;29017;51.514;-0.178;2022-10-17T02:04:25;100632.56;;;17.60;100.00
43420;BME280;29017;51.514;-0.178;2022-10-17T02:06:52;100633.75;;;17.57;100.00
43420;BME280;29017;51.514;-0.178;2022-10-17T02:09:22;100638.69;;;17.60;100.00
43420;BME280;29017;51.514;-0.178;2022-10-17T02:17:34;100628.06;;;17.60;100.00
43420;BME280;29017;51.514;-0.178;2022-10-17T02:23:12;100639.09;;;17.57;100.00
43420;BME280;29017;51.514;-0.178;2022-10-17T02:25:53;100646.03;;;17.58;100.00
43420;BME280;29017;51.514;-0.178;2022-10-17T02:28:27;100649.50;;;17.59;100.00
43420;BME280;29017;51.514;-0.178;2022-10-17T02:31:30;100656.88;;;17.57;100.00
43420;BME280;29017;51.514;-0.178;2022-10-17T02:33:55;100668.75;;;17.54;100.00
43420;BME280;29017;51.514;-0.178;2022-10-17T02:36:36;100673.25;;;17.53;100.00
43420;BME280;29017;51.514;-0.178;2022-10-17T02:39:05;100663.63;;;17.52;100.00
43420;BME280;29017;51.514;-0.178;2022-10-17T02:41:35;100665.25;;;17.53;100.00
43420;BME280;29017;51.514;-0.178;2022-10-17T02:44:03;100674.25;;;17.52;100.00
43420;BME280;29017;51.514;-0.178;2022-10-17T02:46:32;100662.00;;;17.51;100.00
43420;BME280;29017;51.514;-0.178;2022-10-17T02:49:12;100663.84;;;17.51;100.00
43420;BME280;29017;51.514;-0.178;2022-10-17T02:51:50;100646.22;;;17.50;100.00
43420;BME280;29017;51.514;-0.178;2022-10-17T02:54:29;100632.94;;;17.50;100.00
43420;BME280;29017;51.514;-0.178;2022-10-17T02:57:01;100611.63;;;17.50;100.00
43420;BME280;29017;51.514;-0.178;2022-10-17T02:59:31;100605.50;;;17.49;100.00
43420;BME280;29017;51.514;-0.178;2022-10-17T03:02:20;100624.31;;;17.48;100.00
43420;BME280;29017;51.514;-0.178;2022-10-17T03:04:47;100627.81;;;17.48;100.00
43420;BME280;29017;51.514;-0.178;2022-10-17T03:07:14;100628.63;;;17.49;100.00
43420;BME280;29017;51.514;-0.178;2022-10-17T03:09:41;100631.28;;;17.49;100.00
43420;BME280;29017;51.514;-0.178;2022-10-17T03:12:07;100625.97;;;17.49;100.00
43420;BME280;29017;51.514;-0.178;2022-10-17T03:14:34;100647.06;;;17.50;100.00
43420;BME280;29017;51.514;-0.178;2022-10-17T03:17:01;100637.41;;;17.49;100.00
43420;BME280;29017;51.514;-0.178;2022-10-17T03:19:28;100647.25;;;17.49;100.00
43420;BME280;29017;51.514;-0.178;2022-10-17T03:21:55;100643.97;;;17.47;100.00
43420;BME280;29017;51.514;-0.178;2022-10-17T03:24:22;100645.59;;;17.48;100.00
43420;BME280;29017;51.514;-0.178;2022-10-17T03:26:49;100642.34;;;17.46;100.00
43420;BME280;29017;51.514;-0.178;2022-10-17T03:29:15;100627.19;;;17.46;100.00
43420;BME280;29017;51.514;-0.178;2022-10-17T03:31:42;100623.09;;;17.44;100.00
43420;BME280;29017;51.514;-0.178;2022-10-17T03:34:09;100633.13;;;17.42;100.00
43420;BME280;29017;51.514;-0.178;2022-10-17T03:36:36;100637.81;;;17.40;100.00
43420;BME280;29017;51.514;-0.178;2022-10-17T03:39:03;100642.31;;;17.39;100.00
43420;BME280;29017;51.514;-0.178;2022-10-17T03:41:30;100646.81;;;17.39;100.00
43420;BME280;29017;51.514;-0.178;2022-10-17T03:43:56;100654.59;;;17.40;100.00
43420;BME280;29017;51.514;-0.178;2022-10-17T03:46:23;100660.94;;;17.39;100.00
43420;BME280;29017;51.514;-0.178;2022-10-17T03:48:50;100649.47;;;17.39;100.00
43420;BME280;29017;51.514;-0.178;2022-10-17T03:51:17;100667.28;;;17.38;100.00
43420;BME280;29017;51.514;-0.178;2022-10-17T03:53:44;100666.44;;;17.38;100.00
43420;BME280;29017;51.514;-0.178;2022-10-17T03:56:22;100664.63;;;17.38;100.00
43420;BME280;29017;51.514;-0.178;2022-10-17T03:58:49;100674.06;;;17.41;100.00
43420;BME280;29017;51.514;-0.178;2022-10-17T04:01:17;100654.59;;;17.40;100.00
43420;BME280;29017;51.514;-0.178;2022-10-17T04:03:51;100664.41;;;17.40;100.00
43420;BME280;29017;51.514;-0.178;2022-10-17T04:06:19;100668.91;;;17.39;100.00
43420;BME280;29017;51.514;-0.178;2022-10-17T04:08:47;100667.28;;;17.38;100.00
43420;BME280;29017;51.514;-0.178;2022-10-17T04:11:16;100653.97;;;17.38;100.00
43420;BME280;29017;51.514;-0.178;2022-10-17T04:13:44;100659.09;;;17.40;100.00
43420;BME280;29017;51.514;-0.178;2022-10-17T04:16:13;100649.47;;;17.39;100.00
43420;BME280;29017;51.514;-0.178;2022-10-17T04:18:41;100660.94;;;17.39;100.00
43420;BME280;29017;51.514;-0.178;2022-10-17T04:21:08;100662.78;;;17.39;100.00
43420;BME280;29017;51.514;-0.178;2022-10-17T04:23:35;100678.75;;;17.39;100.00
43420;BME280;29017;51.514;-0.178;2022-10-17T04:26:03;100672.59;;;17.38;100.00
43420;BME280;29017;51.514;-0.178;2022-10-17T04:28:31;100671.38;;;17.41;100.00
43420;BME280;29017;51.514;-0.178;2022-10-17T04:31:00;100674.66;;;17.43;100.00
43420;BME280;29017;51.514;-0.178;2022-10-17T04:33:28;100682.44;;;17.44;100.00
43420;BME280;29017;51.514;-0.178;2022-10-17T04:35:59;100683.44;;;17.43;100.00
43420;BME280;29017;51.514;-0.178;2022-10-17T04:38:27;100683.44;;;17.43;100.00
43420;BME280;29017;51.514;-0.178;2022-10-17T04:41:02;100670.16;;;17.43;100.00
43420;BME280;29017;51.514;-0.178;2022-10-17T04:43:35;100672.00;;;17.43;100.00
43420;BME280;29017;51.514;-0.178;2022-10-17T04:46:04;100686.94;;;17.44;100.00
43420;BME280;29017;51.514;-0.178;2022-10-17T04:48:31;100699.22;;;17.45;100.00
43420;BME280;29017;51.514;-0.178;2022-10-17T04:51:01;100707.19;;;17.45;100.00
43420;BME280;29017;51.514;-0.178;2022-10-17T04:53:34;100704.97;;;17.42;100.00
43420;BME280;29017;51.514;-0.178;2022-10-17T04:56:10;100726.25;;;17.42;100.00
43420;BME280;29017;51.514;-0.178;2022-10-17T04:58:38;100721.13;;;17.40;100.00
43420;BME280;29017;51.514;-0.178;2022-10-17T05:01:07;100720.28;;;17.40;100.00
43420;BME280;29017;51.514;-0.178;2022-10-17T05:03:35;100712.31;;;17.40;100.00
43420;BME280;29017;51.514;-0.178;2022-10-17T05:06:05;100722.94;;;17.40;100.00
43420;BME280;29017;51.514;-0.178;2022-10-17T05:08:33;100726.63;;;17.39;100.00
43420;BME280;29017;51.514;-0.178;2022-10-17T05:11:00;100743.81;;;17.36;100.00
43420;BME280;29017;51.514;-0.178;2022-10-17T05:13:29;100756.47;;;17.34;100.00
43420;BME280;29017;51.514;-0.178;2022-10-17T05:16:00;100760.78;;;17.35;100.00
43420;BME280;29017;51.514;-0.178;2022-10-17T05:18:27;100765.91;;;17.37;100.00
43420;BME280;29017;51.514;-0.178;2022-10-17T05:20:54;100774.31;;;17.40;100.00
43420;BME280;29017;51.514;-0.178;2022-10-17T05:23:21;100782.91;;;17.42;100.00
43420;BME280;29017;51.514;-0.178;2022-10-17T05:25:56;100784.13;;;17.40;100.00
43420;BME280;29017;51.514;-0.178;2022-10-17T05:28:22;100784.13;;;17.40;100.00
43420;BME280;29017;51.514;-0.178;2022-10-17T05:30:49;100796.63;;;17.39;100.00
43420;BME280;29017;51.514;-0.178;2022-10-17T05:33:23;100786.78;;;17.40;100.00
43420;BME280;29017;51.514;-0.178;2022-10-17T05:35:52;100788.44;;;17.41;100.00
43420;BME280;29017;51.514;-0.178;2022-10-17T05:38:19;100789.25;;;17.41;100.00
43420;BME280;29017;51.514;-0.178;2022-10-17T05:40:46;100788.44;;;17.41;100.00
43420;BME280;29017;51.514;-0.178;2022-10-17T05:43:13;100790.47;;;17.39;100.00
43420;BME280;29017;51.514;-0.178;2022-10-17T05:45:40;100790.47;;;17.39;100.00
43420;BME280;29017;51.514;-0.178;2022-10-17T05:48:07;100797.63;;;17.38;100.00
43420;BME280;29017;51.514;-0.178;2022-10-17T05:50:34;100807.44;;;17.38;100.00
43420;BME280;29017;51.514;-0.178;2022-10-17T05:53:01;100805.41;;;17.40;100.00
43420;BME280;29017;51.514;-0.178;2022-10-17T05:55:28;100809.50;;;17.42;100.00
43420;BME280;29017;51.514;-0.178;2022-10-17T05:57:55;100803.59;;;17.40;100.00
43420;BME280;29017;51.514;-0.178;2022-10-17T06:00:23;100826.88;;;17.38;100.00
43420;BME280;29017;51.514;-0.178;2022-10-17T06:02:50;100824.63;;;17.35;100.00
43420;BME280;29017;51.514;-0.178;2022-10-17T06:05:17;100822.78;;;17.36;100.00
43420;BME280;29017;51.514;-0.178;2022-10-17T06:07:44;100821.16;;;17.35;100.00
43420;BME280;29017;51.514;-0.178;2022-10-17T06:10:11;100837.94;;;17.35;100.00
43420;BME280;29017;51.514;-0.178;2022-10-17T06:12:41;100855.91;;;17.33;100.00
43420;BME280;29017;51.514;-0.178;2022-10-17T06:15:08;100869.22;;;17.33;100.00
43420;BME280;29017;51.514;-0.178;2022-10-17T06:17:36;100868.59;;;17.31;100.00
43420;BME280;29017;51.514;-0.178;2022-10-17T06:20:03;100873.09;;;17.31;100.00
43420;BME280;29017;51.514;-0.178;2022-10-17T06:22:30;100870.81;;;17.28;100.00
43420;BME280;29017;51.514;-0.178;2022-10-17T06:24:57;100867.34;;;17.27;100.00
43420;BME280;29017;51.514;-0.178;2022-10-17T06:27:24;100869.38;;;17.25;100.00
43420;BME280;29017;51.514;-0.178;2022-10-17T06:29:51;100881.22;;;17.23;100.00
43420;BME280;29017;51.514;-0.178;2022-10-17T06:32:18;100881.22;;;17.23;100.00
43420;BME280;29017;51.514;-0.178;2022-10-17T06:34:45;100886.34;;;17.24;100.00
43420;BME280;29017;51.514;-0.178;2022-10-17T06:37:12;100885.53;;;17.24;100.00
43420;BME280;29017;51.514;-0.178;2022-10-17T06:39:38;100878.56;;;17.23;100.00
43420;BME280;29017;51.514;-0.178;2022-10-17T06:42:05;100880.22;;;17.24;100.00
43420;BME280;29017;51.514;-0.178;2022-10-17T06:44:32;100883.50;;;17.26;100.00
43420;BME280;29017;51.514;-0.178;2022-10-17T06:46:59;100899.25;;;17.27;100.00
43420;BME280;29017;51.514;-0.178;2022-10-17T06:49:27;100913.78;;;17.25;100.00
43420;BME280;29017;51.514;-0.178;2022-10-17T06:51:54;100918.28;;;17.24;100.00
43420;BME280;29017;51.514;-0.178;2022-10-17T06:54:21;100925.41;;;17.24;100.00
43420;BME280;29017;51.514;-0.178;2022-10-17T06:56:48;100936.88;;;17.24;100.00
43420;BME280;29017;51.514;-0.178;2022-10-17T06:59:15;100927.06;;;17.25;100.00
43420;BME280;29017;51.514;-0.178;2022-10-17T07:01:42;100929.91;;;17.23;100.00
43420;BME280;29017;51.514;-0.178;2022-10-17T07:04:12;100947.53;;;17.24;100.00
43420;BME280;29017;51.514;-0.178;2022-10-17T07:06:39;100943.84;;;17.25;100.00
43420;BME280;29017;51.514;-0.178;2022-10-17T07:09:07;100963.47;;;17.24;100.00
43420;BME280;29017;51.514;-0.178;2022-10-17T07:11:34;100967.97;;;17.24;100.00
43420;BME280;29017;51.514;-0.178;2022-10-17T07:14:02;100966.16;;;17.24;100.00
43420;BME280;29017;51.514;-0.178;2022-10-17T07:16:29;100967.41;;;17.28;100.00
43420;BME280;29017;51.514;-0.178;2022-10-17T07:18:56;100962.72;;;17.30;100.00
43420;BME280;29017;51.514;-0.178;2022-10-17T07:21:22;100968.03;;;17.30;100.00
43420;BME280;29017;51.514;-0.178;2022-10-17T07:23:49;100986.84;;;17.29;100.00
43420;BME280;29017;51.514;-0.178;2022-10-17T07:26:17;100997.47;;;17.29;100.00
43420;BME280;29017;51.514;-0.178;2022-10-17T07:28:46;100995.22;;;17.26;100.00
43420;BME280;29017;51.514;-0.178;2022-10-17T07:31:17;101010.97;;;17.27;100.00
43420;BME280;29017;51.514;-0.178;2022-10-17T07:33:45;101016.28;;;17.27;100.00
43420;BME280;29017;51.514;-0.178;2022-10-17T07:36:32;101030.22;;;17.29;100.00
43420;BME280;29017;51.514;-0.178;2022-10-17T07:38:59;101036.38;;;17.30;100.00
43420;BME280;29017;51.514;-0.178;2022-10-17T07:41:26;101041.06;;;17.28;100.00
43420;BME280;29017;51.514;-0.178;2022-10-17T07:43:53;101048.19;;;17.27;100.00
43420;BME280;29017;51.514;-0.178;2022-10-17T07:46:20;101052.50;;;17.28;100.00
43420;BME280;29017;51.514;-0.178;2022-10-17T07:48:47;101061.13;;;17.30;100.00
43420;BME280;29017;51.514;-0.178;2022-10-17T07:51:13;101065.63;;;17.30;100.00
43420;BME280;29017;51.514;-0.178;2022-10-17T07:53:40;101062.78;;;17.31;100.00
43420;BME280;29017;51.514;-0.178;2022-10-17T07:56:14;101074.03;;;17.33;100.00
43420;BME280;29017;51.514;-0.178;2022-10-17T07:58:41;101065.88;;;17.35;100.00
43420;BME280;29017;51.514;-0.178;2022-10-17T08:01:09;101074.31;;;17.38;100.00
43420;BME280;29017;51.514;-0.178;2022-10-17T08:03:42;101072.47;;;17.39;100.00
43420;BME280;29017;51.514;-0.178;2022-10-17T08:06:10;101082.53;;;17.43;100.00
43420;BME280;29017;51.514;-0.178;2022-10-17T08:08:37;101077.03;;;17.45;99.69
43420;BME280;29017;51.514;-0.178;2022-10-17T08:11:07;101088.94;;;17.49;99.64
43420;BME280;29017;51.514;-0.178;2022-10-17T08:13:38;101097.72;;;17.49;99.14
43420;BME280;29017;51.514;-0.178;2022-10-17T08:16:08;101091.00;;;17.53;99.06
43420;BME280;29017;51.514;-0.178;2022-10-17T08:18:35;101085.94;;;17.59;99.22
43420;BME280;29017;51.514;-0.178;2022-10-17T08:21:04;101094.19;;;17.64;98.73
43420;BME280;29017;51.514;-0.178;2022-10-17T08:23:35;101101.16;;;17.65;97.82
43420;BME280;29017;51.514;-0.178;2022-10-17T08:26:04;101109.97;;;17.65;97.17
43420;BME280;29017;51.514;-0.178;2022-10-17T08:28:34;101114.47;;;17.65;97.24
43420;BME280;29017;51.514;-0.178;2022-10-17T08:31:06;101123.72;;;17.69;97.67
43420;BME280;29017;51.514;-0.178;2022-10-17T08:33:36;101133.19;;;17.71;97.37
43420;BME280;29017;51.514;-0.178;2022-10-17T08:36:04;101134.19;;;17.70;96.65
43420;BME280;29017;51.514;-0.178;2022-10-17T08:38:33;101142.16;;;17.70;96.91
43420;BME280;29017;51.514;-0.178;2022-10-17T08:41:10;101137.50;;;17.72;97.47
43420;BME280;29017;51.514;-0.178;2022-10-17T08:43:57;101146.50;;;17.71;97.26
43420;BME280;29017;51.514;-0.178;2022-10-17T08:46:33;101145.22;;;17.67;97.02
43420;BME280;29017;51.514;-0.178;2022-10-17T08:49:03;101155.88;;;17.67;96.96
43420;BME280;29017;51.514;-0.178;2022-10-17T08:51:50;101154.41;;;17.65;96.26
43420;BME280;29017;51.514;-0.178;2022-10-17T08:54:23;101162.00;;;17.68;96.46
43420;BME280;29017;51.514;-0.178;2022-10-17T08:56:54;101179.63;;;17.69;96.52
43420;BME280;29017;51.514;-0.178;2022-10-17T08:59:28;101179.63;;;17.69;96.35
43420;BME280;29017;51.514;-0.178;2022-10-17T09:02:15;101183.88;;;17.63;95.91
43420;BME280;29017;51.514;-0.178;2022-10-17T09:07:49;101196.16;;;17.64;95.63
43420;BME280;29017;51.514;-0.178;2022-10-17T09:10:20;101193.31;;;17.66;95.78
43420;BME280;29017;51.514;-0.178;2022-10-17T09:15:56;101201.56;;;17.71;96.06
43420;BME280;29017;51.514;-0.178;2022-10-17T09:23:56;101210.56;;;17.70;95.32
43420;BME280;29017;51.514;-0.178;2022-10-17T09:26:36;101202.75;;;17.68;95.38
43420;BME280;29017;51.514;-0.178;2022-10-17T09:29:14;101219.53;;;17.69;95.23
43420;BME280;29017;51.514;-0.178;2022-10-17T09:31:56;101224.88;;;17.69;95.16
43420;BME280;29017;51.514;-0.178;2022-10-17T09:34:27;101209.91;;;17.68;94.75
43420;BME280;29017;51.514;-0.178;2022-10-17T09:36:57;101223.88;;;17.70;95.01
43420;BME280;29017;51.514;-0.178;2022-10-17T09:39:26;101225.34;;;17.72;95.29
43420;BME280;29017;51.514;-0.178;2022-10-17T09:42:03;101221.47;;;17.75;95.26
43420;BME280;29017;51.514;-0.178;2022-10-17T09:45:04;101238.69;;;17.79;95.30
43420;BME280;29017;51.514;-0.178;2022-10-17T09:48:22;101251.81;;;17.80;94.67
43420;BME280;29017;51.514;-0.178;2022-10-17T09:50:50;101254.50;;;17.80;94.48
43420;BME280;29017;51.514;-0.178;2022-10-17T09:53:40;101252.66;;;17.81;94.57
43420;BME280;29017;51.514;-0.178;2022-10-17T09:56:16;101263.13;;;17.82;94.61
43420;BME280;29017;51.514;-0.178;2022-10-17T09:58:51;101264.56;;;17.85;94.60
43420;BME280;29017;51.514;-0.178;2022-10-17T10:01:26;101267.66;;;17.88;94.13
43420;BME280;29017;51.514;-0.178;2022-10-17T10:04:15;101274.81;;;17.88;93.17
43420;BME280;29017;51.514;-0.178;2022-10-17T10:07:09;101282.19;;;17.86;92.59
43420;BME280;29017;51.514;-0.178;2022-10-17T10:09:37;101291.84;;;17.87;92.81
43420;BME280;29017;51.514;-0.178;2022-10-17T10:12:16;101299.44;;;17.90;93.04
43420;BME280;29017;51.514;-0.178;2022-10-17T10:14:43;101298.25;;;17.92;92.59
43420;BME280;29017;51.514;-0.178;2022-10-17T10:17:36;101309.44;;;17.88;90.10
43420;BME280;29017;51.514;-0.178;2022-10-17T10:20:24;101316.25;;;17.90;90.15
43420;BME280;29017;51.514;-0.178;2022-10-17T10:23:13;101322.84;;;17.94;89.66
43420;BME280;29017;51.514;-0.178;2022-10-17T10:25:54;101326.31;;;17.95;88.73
43420;BME280;29017;51.514;-0.178;2022-10-17T10:28:25;101330.25;;;17.99;89.39
43420;BME280;29017;51.514;-0.178;2022-10-17T10:30:54;101336.22;;;18.01;87.90
43420;BME280;29017;51.514;-0.178;2022-10-17T10:33:36;101333.38;;;18.03;87.80
43420;BME280;29017;51.514;-0.178;2022-10-17T10:36:07;101336.06;;;18.03;87.28
43420;BME280;29017;51.514;-0.178;2022-10-17T10:38:39;101342.81;;;18.05;87.94
43420;BME280;29017;51.514;-0.178;2022-10-17T10:41:10;101352.06;;;18.09;87.98
43420;BME280;29017;51.514;-0.178;2022-10-17T10:43:46;101356.22;;;18.12;87.12
43420;BME280;29017;51.514;-0.178;2022-10-17T10:46:20;101358.41;;;18.08;84.32
43420;BME280;29017;51.514;-0.178;2022-10-17T10:49:07;101355.38;;;18.11;84.02
43420;BME280;29017;51.514;-0.178;2022-10-17T10:51:52;101357.06;;;18.12;83.70
43420;BME280;29017;51.514;-0.178;2022-10-17T10:54:29;101359.97;;;18.17;84.87
43420;BME280;29017;51.514;-0.178;2022-10-17T10:57:01;101356.56;;;18.23;85.54
43420;BME280;29017;51.514;-0.178;2022-10-17T11:02:25;101374.16;;;18.24;82.30
43420;BME280;29017;51.514;-0.178;2022-10-17T11:05:02;101390.38;;;18.23;80.92
43420;BME280;29017;51.514;-0.178;2022-10-17T11:07:34;101387.22;;;18.19;79.28
43420;BME280;29017;51.514;-0.178;2022-10-17T11:10:18;101390.53;;;18.21;80.95
43420;BME280;29017;51.514;-0.178;2022-10-17T11:15:43;101402.66;;;18.24;81.36
43420;BME280;29017;51.514;-0.178;2022-10-17T11:18:37;101403.13;;;18.27;82.82
43420;BME280;29017;51.514;-0.178;2022-10-17T11:21:14;101407.97;;;18.24;80.76
43420;BME280;29017;51.514;-0.178;2022-10-17T11:23:50;101406.34;;;18.23;79.70
43420;BME280;29017;51.514;-0.178;2022-10-17T11:26:30;101419.47;;;18.24;78.77
43420;BME280;29017;51.514;-0.178;2022-10-17T11:29:03;101421.94;;;18.26;79.13
43420;BME280;29017;51.514;-0.178;2022-10-17T11:31:39;101428.28;;;18.25;77.59
43420;BME280;29017;51.514;-0.178;2022-10-17T11:34:30;101426.25;;;18.27;78.42
43420;BME280;29017;51.514;-0.178;2022-10-17T11:37:15;101441.03;;;18.29;77.69
43420;BME280;29017;51.514;-0.178;2022-10-17T11:39:53;101440.22;;;18.29;77.79
43420;BME280;29017;51.514;-0.178;2022-10-17T11:42:49;101441.69;;;18.31;77.95
43420;BME280;29017;51.514;-0.178;2022-10-17T11:45:21;101442.50;;;18.32;78.08
43420;BME280;29017;51.514;-0.178;2022-10-17T11:50:38;101463.00;;;18.31;77.28
43420;BME280;29017;51.514;-0.178;2022-10-17T11:53:45;101468.34;;;18.31;77.16
43420;BME280;29017;51.514;-0.178;2022-10-17T11:56:17;101461.00;;;18.33;76.11
43420;BME280;29017;51.514;-0.178;2022-10-17T11:58:56;101459.78;;;18.36;76.78
43420;BME280;29017;51.514;-0.178;2022-10-17T12:01:38;101463.91;;;18.38;76.49
43420;BME280;29017;51.514;-0.178;2022-10-17T12:07:43;101462.31;;;18.44;77.23
43420;BME280;29017;51.514;-0.178;2022-10-17T12:10:22;101467.09;;;18.49;77.90
43420;BME280;29017;51.514;-0.178;2022-10-17T12:12:50;101463.41;;;18.50;77.08
43420;BME280;29017;51.514;-0.178;2022-10-17T12:18:10;101477.66;;;18.57;74.17
43420;BME280;29017;51.514;-0.178;2022-10-17T12:20:39;101475.19;;;18.55;73.19
43420;BME280;29017;51.514;-0.178;2022-10-17T12:25:51;101476.44;;;18.59;73.78
43420;BME280;29017;51.514;-0.178;2022-10-17T12:34:01;101477.19;;;18.53;71.48
43420;BME280;29017;51.514;-0.178;2022-10-17T12:49:21;101468.59;;;18.72;70.49
43420;BME280;29017;51.514;-0.178;2022-10-17T12:54:39;101472.13;;;18.79;69.05
43420;BME280;29017;51.514;-0.178;2022-10-17T13:00:18;101469.38;;;18.88;69.46
43420;BME280;29017;51.514;-0.178;2022-10-17T13:02:47;101486.22;;;18.95;71.12
43420;BME280;29017;51.514;-0.178;2022-10-17T13:05:33;101490.19;;;18.99;71.68
43420;BME280;29017;51.514;-0.178;2022-10-17T13:08:03;101489.78;;;19.02;69.85
43420;BME280;29017;51.514;-0.178;2022-10-17T13:10:35;101491.81;;;19.00;69.37
43420;BME280;29017;51.514;-0.178;2022-10-17T13:16:00;101504.53;;;18.98;69.51
43420;BME280;29017;51.514;-0.178;2022-10-17T13:18:28;101497.56;;;18.97;68.59
43420;BME280;29017;51.514;-0.178;2022-10-17T13:21:03;101506.56;;;18.96;67.79
43420;BME280;29017;51.514;-0.178;2022-10-17T13:23:39;101508.41;;;18.95;68.91
43420;BME280;29017;51.514;-0.178;2022-10-17T13:28:32;101503.66;;;18.91;68.33
43420;BME280;29017;51.514;-0.178;2022-10-17T13:31:05;101507.72;;;18.87;68.38
43420;BME280;29017;51.514;-0.178;2022-10-17T13:33:37;101507.28;;;18.83;68.95
43420;BME280;29017;51.514;-0.178;2022-10-17T13:36:12;101505.63;;;18.82;69.04
43420;BME280;29017;51.514;-0.178;2022-10-17T13:38:41;101505.81;;;18.80;71.41
43420;BME280;29017;51.514;-0.178;2022-10-17T13:41:12;101511.59;;;18.84;72.18
43420;BME280;29017;51.514;-0.178;2022-10-17T13:44:02;101506.06;;;18.86;70.91
43420;BME280;29017;51.514;-0.178;2022-10-17T13:46:31;101522.53;;;18.89;72.07
43420;BME280;29017;51.514;-0.178;2022-10-17T13:51:54;101522.53;;;18.89;69.79
43420;BME280;29017;51.514;-0.178;2022-10-17T13:54:35;101523.97;;;18.92;70.28
43420;BME280;29017;51.514;-0.178;2022-10-17T13:57:03;101527.28;;;18.94;68.46
43420;BME280;29017;51.514;-0.178;2022-10-17T13:59:39;101523.22;;;18.98;68.42
43420;BME280;29017;51.514;-0.178;2022-10-17T14:02:19;101523.47;;;19.03;67.53
43420;BME280;29017;51.514;-0.178;2022-10-17T14:04:46;101529.06;;;19.08;64.36
43420;BME280;29017;51.514;-0.178;2022-10-17T14:07:37;101525.81;;;19.12;63.29
43420;BME280;29017;51.514;-0.178;2022-10-17T14:10:36;101514.56;;;19.17;63.82
43420;BME280;29017;51.514;-0.178;2022-10-17T14:13:06;101518.31;;;19.22;66.88
43420;BME280;29017;51.514;-0.178;2022-10-17T14:15:36;101521.16;;;19.21;65.64
43420;BME280;29017;51.514;-0.178;2022-10-17T14:18:05;101524.03;;;19.19;64.23
43420;BME280;29017;51.514;-0.178;2022-10-17T14:20:34;101527.72;;;19.18;63.25
43420;BME280;29017;51.514;-0.178;2022-10-17T14:23:42;101533.66;;;19.20;63.87
43420;BME280;29017;51.514;-0.178;2022-10-17T14:26:11;101536.56;;;19.19;63.14